sensor_id;sensor_type;location;lat;lon;timestamp;temperature;humidity
72865;DHT22;61000;48.120;11.548;2023-04-24T00:01:34;10.30;99.90
72865;DHT22;61000;48.120;11.548;2023-04-24T00:04:02;10.30;99.90
72865;DHT22;61000;48.120;11.548;2023-04-24T00:06:29;10.20;99.90
72865;DHT22;61000;48.120;11.548;2023-04-24T00:08:58;10.20;99.90
72865;DHT22;61000;48.120;11.548;2023-04-24T00:11:26;10.30;99.90
72865;DHT22;61000;48.120;11.548;2023-04-24T00:13:53;10.30;99.90
72865;DHT22;61000;48.120;11.548;2023-04-24T00:16:21;10.20;99.90
72865;DHT22;61000;48.120;11.548;2023-04-24T00:18:48;10.20;99.90
72865;DHT22;61000;48.120;11.548;2023-04-24T00:21:15;10.30;99.90
72865;DHT22;61000;48.120;11.548;2023-04-24T00:23:43;10.20;99.90
72865;DHT22;61000;48.120;11.548;2023-04-24T00:26:10;10.20;99.90
72865;DHT22;61000;48.120;11.548;2023-04-24T00:28:37;10.20;99.90
72865;DHT22;61000;48.120;11.548;2023-04-24T00:31:04;10.20;99.90
72865;DHT22;61000;48.120;11.548;2023-04-24T00:33:32;10.10;99.90
72865;DHT22;61000;48.120;11.548;2023-04-24T00:35:59;10.10;99.90
72865;DHT22;61000;48.120;11.548;2023-04-24T00:38:26;10.10;99.90
72865;DHT22;61000;48.120;11.548;2023-04-24T00:40:53;10.10;99.90
72865;DHT22;61000;48.120;11.548;2023-04-24T00:43:20;10.10;99.90
72865;DHT22;61000;48.120;11.548;2023-04-24T00:45:47;10.10;99.90
72865;DHT22;61000;48.120;11.548;2023-04-24T00:48:14;10.10;99.90
72865;DHT22;61000;48.120;11.548;2023-04-24T00:50:43;10.10;99.90
72865;DHT22;61000;48.120;11.548;2023-04-24T00:53:10;10.00;99.90
72865;DHT22;61000;48.120;11.548;2023-04-24T00:55:36;10.00;99.90
72865;DHT22;61000;48.120;11.548;2023-04-24T00:58:04;10.10;99.90
72865;DHT22;61000;48.120;11.548;2023-04-24T01:00:31;10.00;99.90
72865;DHT22;61000;48.120;11.548;2023-04-24T01:02:59;10.00;99.90
72865;DHT22;61000;48.120;11.548;2023-04-24T01:05:28;10.00;99.90
72865;DHT22;61000;48.120;11.548;2023-04-24T01:07:56;10.00;99.90
72865;DHT22;61000;48.120;11.548;2023-04-24T01:10:25;9.90;99.90
72865;DHT22;61000;48.120;11.548;2023-04-24T01:12:53;10.00;99.90
72865;DHT22;61000;48.120;11.548;2023-04-24T01:15:20;9.80;99.90
72865;DHT22;61000;48.120;11.548;2023-04-24T01:17:47;9.90;99.90
72865;DHT22;61000;48.120;11.548;2023-04-24T01:20:14;9.80;99.90
72865;DHT22;61000;48.120;11.548;2023-04-24T01:22:43;9.90;99.90
72865;DHT22;61000;48.120;11.548;2023-04-24T01:25:10;9.90;99.90
72865;DHT22;61000;48.120;11.548;2023-04-24T01:27:36;9.80;99.90
72865;DHT22;61000;48.120;11.548;2023-04-24T01:30:05;9.90;99.90
72865;DHT22;61000;48.120;11.548;2023-04-24T01:32:33;9.80;99.90
72865;DHT22;61000;48.120;11.548;2023-04-24T01:35:00;9.90;99.90
72865;DHT22;61000;48.120;11.548;2023-04-24T01:37:27;9.80;99.90
72865;DHT22;61000;48.120;11.548;2023-04-24T01:39:55;9.80;99.90
72865;DHT22;61000;48.120;11.548;2023-04-24T01:42:22;9.70;99.90
72865;DHT22;61000;48.120;11.548;2023-04-24T01:44:50;9.70;99.90
72865;DHT22;61000;48.120;11.548;2023-04-24T01:47:17;9.70;99.90
72865;DHT22;61000;48.120;11.548;2023-04-24T01:49:45;9.80;99.90
72865;DHT22;61000;48.120;11.548;2023-04-24T01:52:14;9.80;99.90
72865;DHT22;61000;48.120;11.548;2023-04-24T01:54:41;9.70;99.90
72865;DHT22;61000;48.120;11.548;2023-04-24T01:57:10;9.70;99.90
72865;DHT22;61000;48.120;11.548;2023-04-24T01:59:37;9.70;99.90
72865;DHT22;61000;48.120;11.548;2023-04-24T02:02:04;9.70;99.90
72865;DHT22;61000;48.120;11.548;2023-04-24T02:04:31;9.70;99.90
72865;DHT22;61000;48.120;11.548;2023-04-24T02:06:58;9.70;99.90
72865;DHT22;61000;48.120;11.548;2023-04-24T02:09:24;9.70;99.90
72865;DHT22;61000;48.120;11.548;2023-04-24T02:11:51;9.70;99.90
72865;DHT22;61000;48.120;11.548;2023-04-24T02:14:20;9.70;99.90
72865;DHT22;61000;48.120;11.548;2023-04-24T02:16:47;9.70;99.90
72865;DHT22;61000;48.120;11.548;2023-04-24T02:19:14;9.60;99.90
72865;DHT22;61000;48.120;11.548;2023-04-24T02:21:40;9.60;99.90
72865;DHT22;61000;48.120;11.548;2023-04-24T02:24:08;9.60;99.90
72865;DHT22;61000;48.120;11.548;2023-04-24T02:26:35;9.60;99.90
72865;DHT22;61000;48.120;11.548;2023-04-24T02:29:05;9.60;99.90
72865;DHT22;61000;48.120;11.548;2023-04-24T02:31:33;9.70;99.90
72865;DHT22;61000;48.120;11.548;2023-04-24T02:34:00;9.70;99.90
72865;DHT22;61000;48.120;11.548;2023-04-24T02:36:27;9.60;99.90
72865;DHT22;61000;48.120;11.548;2023-04-24T02:38:54;9.70;99.90
72865;DHT22;61000;48.120;11.548;2023-04-24T02:41:21;9.70;99.90
72865;DHT22;61000;48.120;11.548;2023-04-24T02:43:48;9.60;99.90
72865;DHT22;61000;48.120;11.548;2023-04-24T02:46:15;9.60;99.90
72865;DHT22;61000;48.120;11.548;2023-04-24T02:48:43;9.60;99.90
72865;DHT22;61000;48.120;11.548;2023-04-24T02:51:10;9.60;99.90
72865;DHT22;61000;48.120;11.548;2023-04-24T02:53:37;9.60;99.90
72865;DHT22;61000;48.120;11.548;2023-04-24T02:56:04;9.70;99.90
72865;DHT22;61000;48.120;11.548;2023-04-24T02:58:31;9.50;99.90
72865;DHT22;61000;48.120;11.548;2023-04-24T03:00:58;9.60;99.90
72865;DHT22;61000;48.120;11.548;2023-04-24T03:03:25;9.60;99.90
72865;DHT22;61000;48.120;11.548;2023-04-24T03:05:54;9.50;99.90
72865;DHT22;61000;48.120;11.548;2023-04-24T03:08:21;9.50;99.90
72865;DHT22;61000;48.120;11.548;2023-04-24T03:10:48;9.60;99.90
72865;DHT22;61000;48.120;11.548;2023-04-24T03:13:16;9.40;99.90
72865;DHT22;61000;48.120;11.548;2023-04-24T03:15:43;9.50;99.90
72865;DHT22;61000;48.120;11.548;2023-04-24T03:18:10;9.50;99.90
72865;DHT22;61000;48.120;11.548;2023-04-24T03:20:37;9.50;99.90
72865;DHT22;61000;48.120;11.548;2023-04-24T03:23:06;9.40;99.90
72865;DHT22;61000;48.120;11.548;2023-04-24T03:25:33;9.40;99.90
72865;DHT22;61000;48.120;11.548;2023-04-24T03:28:01;9.40;99.90
72865;DHT22;61000;48.120;11.548;2023-04-24T03:30:39;9.40;99.90
72865;DHT22;61000;48.120;11.548;2023-04-24T03:33:07;9.40;99.90
72865;DHT22;61000;48.120;11.548;2023-04-24T03:35:38;9.40;99.90
72865;DHT22;61000;48.120;11.548;2023-04-24T03:38:10;9.30;99.90
72865;DHT22;61000;48.120;11.548;2023-04-24T03:40:40;9.40;99.90
72865;DHT22;61000;48.120;11.548;2023-04-24T03:43:21;9.40;99.90
72865;DHT22;61000;48.120;11.548;2023-04-24T03:45:48;9.20;99.90
72865;DHT22;61000;48.120;11.548;2023-04-24T03:48:17;9.30;99.90
72865;DHT22;61000;48.120;11.548;2023-04-24T03:50:44;9.30;99.90
72865;DHT22;61000;48.120;11.548;2023-04-24T03:53:13;9.20;99.90
72865;DHT22;61000;48.120;11.548;2023-04-24T03:55:41;9.30;99.90
72865;DHT22;61000;48.120;11.548;2023-04-24T03:58:09;9.30;99.90
72865;DHT22;61000;48.120;11.548;2023-04-24T04:00:36;9.20;99.90
72865;DHT22;61000;48.120;11.548;2023-04-24T04:03:25;9.30;99.90
72865;DHT22;61000;48.120;11.548;2023-04-24T04:05:52;9.20;99.90
72865;DHT22;61000;48.120;11.548;2023-04-24T04:08:21;9.20;99.90
72865;DHT22;61000;48.120;11.548;2023-04-24T04:10:48;9.20;99.90
72865;DHT22;61000;48.120;11.548;2023-04-24T04:13:15;9.20;99.90
72865;DHT22;61000;48.120;11.548;2023-04-24T04:15:42;9.20;99.90
72865;DHT22;61000;48.120;11.548;2023-04-24T04:18:09;9.20;99.90
72865;DHT22;61000;48.120;11.548;2023-04-24T04:20:36;9.20;99.90
72865;DHT22;61000;48.120;11.548;2023-04-24T04:23:03;9.20;99.90
72865;DHT22;61000;48.120;11.548;2023-04-24T04:25:45;9.20;99.90
72865;DHT22;61000;48.120;11.548;2023-04-24T04:28:13;9.20;99.90
72865;DHT22;61000;48.120;11.548;2023-04-24T04:30:41;9.20;99.90
72865;DHT22;61000;48.120;11.548;2023-04-24T04:33:08;9.20;99.90
72865;DHT22;61000;48.120;11.548;2023-04-24T04:35:36;9.20;99.90
72865;DHT22;61000;48.120;11.548;2023-04-24T04:38:03;9.20;99.90
72865;DHT22;61000;48.120;11.548;2023-04-24T04:40:52;9.30;99.90
72865;DHT22;61000;48.120;11.548;2023-04-24T04:43:21;9.30;99.90
72865;DHT22;61000;48.120;11.548;2023-04-24T04:45:51;9.20;99.90
72865;DHT22;61000;48.120;11.548;2023-04-24T04:48:31;9.20;99.90
72865;DHT22;61000;48.120;11.548;2023-04-24T04:51:01;9.30;99.90
72865;DHT22;61000;48.120;11.548;2023-04-24T04:53:29;9.20;99.90
72865;DHT22;61000;48.120;11.548;2023-04-24T04:55:57;9.20;99.90
72865;DHT22;61000;48.120;11.548;2023-04-24T04:58:34;9.20;99.90
72865;DHT22;61000;48.120;11.548;2023-04-24T05:01:02;9.20;99.90
72865;DHT22;61000;48.120;11.548;2023-04-24T05:03:38;9.30;99.90
72865;DHT22;61000;48.120;11.548;2023-04-24T05:06:09;9.20;99.90
72865;DHT22;61000;48.120;11.548;2023-04-24T05:08:38;9.30;99.90
72865;DHT22;61000;48.120;11.548;2023-04-24T05:11:10;9.30;99.90
72865;DHT22;61000;48.120;11.548;2023-04-24T05:13:38;9.30;99.90
72865;DHT22;61000;48.120;11.548;2023-04-24T05:16:09;9.30;99.90
72865;DHT22;61000;48.120;11.548;2023-04-24T05:18:36;9.40;99.90
72865;DHT22;61000;48.120;11.548;2023-04-24T05:21:05;9.30;99.90
72865;DHT22;61000;48.120;11.548;2023-04-24T05:23:32;9.30;99.90
72865;DHT22;61000;48.120;11.548;2023-04-24T05:26:00;9.40;99.90
72865;DHT22;61000;48.120;11.548;2023-04-24T05:28:30;9.30;99.90
72865;DHT22;61000;48.120;11.548;2023-04-24T05:31:04;9.40;99.90
72865;DHT22;61000;48.120;11.548;2023-04-24T05:33:32;9.40;99.90
72865;DHT22;61000;48.120;11.548;2023-04-24T05:35:59;9.50;99.90
72865;DHT22;61000;48.120;11.548;2023-04-24T05:38:26;9.40;99.90
72865;DHT22;61000;48.120;11.548;2023-04-24T05:40:53;9.40;99.90
72865;DHT22;61000;48.120;11.548;2023-04-24T05:43:20;9.50;99.90
72865;DHT22;61000;48.120;11.548;2023-04-24T05:45:48;9.50;99.90
72865;DHT22;61000;48.120;11.548;2023-04-24T05:48:17;9.50;99.90
72865;DHT22;61000;48.120;11.548;2023-04-24T05:50:46;9.50;99.90
72865;DHT22;61000;48.120;11.548;2023-04-24T05:53:13;9.50;99.90
72865;DHT22;61000;48.120;11.548;2023-04-24T05:55:41;9.50;99.90
72865;DHT22;61000;48.120;11.548;2023-04-24T05:58:14;9.60;99.90
72865;DHT22;61000;48.120;11.548;2023-04-24T06:00:41;9.50;99.90
72865;DHT22;61000;48.120;11.548;2023-04-24T06:03:10;9.60;99.90
72865;DHT22;61000;48.120;11.548;2023-04-24T06:05:37;9.70;99.90
72865;DHT22;61000;48.120;11.548;2023-04-24T06:08:04;9.70;99.90
72865;DHT22;61000;48.120;11.548;2023-04-24T06:10:35;9.70;99.90
72865;DHT22;61000;48.120;11.548;2023-04-24T06:13:03;9.90;99.90
72865;DHT22;61000;48.120;11.548;2023-04-24T06:15:32;9.90;99.90
72865;DHT22;61000;48.120;11.548;2023-04-24T06:18:04;10.00;99.90
72865;DHT22;61000;48.120;11.548;2023-04-24T06:20:32;9.40;99.90
72865;DHT22;61000;48.120;11.548;2023-04-24T06:23:01;10.20;99.90
72865;DHT22;61000;48.120;11.548;2023-04-24T06:25:28;10.10;99.90
72865;DHT22;61000;48.120;11.548;2023-04-24T06:27:55;10.10;99.90
72865;DHT22;61000;48.120;11.548;2023-04-24T06:30:22;10.20;99.90
72865;DHT22;61000;48.120;11.548;2023-04-24T06:32:50;10.20;99.90
72865;DHT22;61000;48.120;11.548;2023-04-24T06:35:17;10.20;99.90
72865;DHT22;61000;48.120;11.548;2023-04-24T06:37:46;10.20;99.90
72865;DHT22;61000;48.120;11.548;2023-04-24T06:40:13;10.30;99.90
72865;DHT22;61000;48.120;11.548;2023-04-24T06:42:40;10.30;99.90
72865;DHT22;61000;48.120;11.548;2023-04-24T06:45:08;10.40;99.90
72865;DHT22;61000;48.120;11.548;2023-04-24T06:47:36;10.50;99.90
72865;DHT22;61000;48.120;11.548;2023-04-24T06:50:04;10.50;99.90
72865;DHT22;61000;48.120;11.548;2023-04-24T06:52:31;10.60;99.90
72865;DHT22;61000;48.120;11.548;2023-04-24T06:55:01;10.60;99.90
72865;DHT22;61000;48.120;11.548;2023-04-24T06:57:28;10.80;99.90
72865;DHT22;61000;48.120;11.548;2023-04-24T06:59:55;10.80;99.90
72865;DHT22;61000;48.120;11.548;2023-04-24T07:02:22;10.80;99.90
72865;DHT22;61000;48.120;11.548;2023-04-24T07:04:49;10.80;99.90
72865;DHT22;61000;48.120;11.548;2023-04-24T07:07:16;10.90;99.90
72865;DHT22;61000;48.120;11.548;2023-04-24T07:09:43;10.90;99.90
72865;DHT22;61000;48.120;11.548;2023-04-24T07:12:12;11.10;99.90
72865;DHT22;61000;48.120;11.548;2023-04-24T07:14:39;11.00;99.90
72865;DHT22;61000;48.120;11.548;2023-04-24T07:17:06;11.00;99.90
72865;DHT22;61000;48.120;11.548;2023-04-24T07:19:33;11.10;99.90
72865;DHT22;61000;48.120;11.548;2023-04-24T07:22:01;11.10;99.90
72865;DHT22;61000;48.120;11.548;2023-04-24T07:24:28;11.10;99.90
72865;DHT22;61000;48.120;11.548;2023-04-24T07:26:57;11.00;99.90
72865;DHT22;61000;48.120;11.548;2023-04-24T07:29:26;11.10;99.90
72865;DHT22;61000;48.120;11.548;2023-04-24T07:31:53;11.10;99.90
72865;DHT22;61000;48.120;11.548;2023-04-24T07:34:20;11.20;99.90
72865;DHT22;61000;48.120;11.548;2023-04-24T07:36:47;11.30;99.90
72865;DHT22;61000;48.120;11.548;2023-04-24T07:39:14;11.30;99.90
72865;DHT22;61000;48.120;11.548;2023-04-24T07:41:41;11.20;99.90
72865;DHT22;61000;48.120;11.548;2023-04-24T07:44:08;11.20;99.90
72865;DHT22;61000;48.120;11.548;2023-04-24T07:46:36;11.20;99.90
72865;DHT22;61000;48.120;11.548;2023-04-24T07:49:04;11.20;99.90
72865;DHT22;61000;48.120;11.548;2023-04-24T07:51:31;11.20;99.90
72865;DHT22;61000;48.120;11.548;2023-04-24T07:53:59;11.10;99.90
72865;DHT22;61000;48.120;11.548;2023-04-24T07:56:26;11.20;99.90
72865;DHT22;61000;48.120;11.548;2023-04-24T07:58:56;11.20;99.90
72865;DHT22;61000;48.120;11.548;2023-04-24T08:01:23;11.30;99.90
72865;DHT22;61000;48.120;11.548;2023-04-24T08:03:52;11.30;99.90
72865;DHT22;61000;48.120;11.548;2023-04-24T08:06:18;11.30;99.90
72865;DHT22;61000;48.120;11.548;2023-04-24T08:08:45;11.40;99.90
72865;DHT22;61000;48.120;11.548;2023-04-24T08:11:12;11.50;99.90
72865;DHT22;61000;48.120;11.548;2023-04-24T08:13:39;11.70;99.90
72865;DHT22;61000;48.120;11.548;2023-04-24T08:16:06;11.70;99.90
72865;DHT22;61000;48.120;11.548;2023-04-24T08:18:33;11.80;99.90
72865;DHT22;61000;48.120;11.548;2023-04-24T08:21:03;11.70;99.90
72865;DHT22;61000;48.120;11.548;2023-04-24T08:23:30;11.60;99.90
72865;DHT22;61000;48.120;11.548;2023-04-24T08:25:57;11.50;99.90
72865;DHT22;61000;48.120;11.548;2023-04-24T08:28:24;11.40;99.90
72865;DHT22;61000;48.120;11.548;2023-04-24T08:30:51;11.40;99.90
72865;DHT22;61000;48.120;11.548;2023-04-24T08:33:20;11.30;99.90
72865;DHT22;61000;48.120;11.548;2023-04-24T08:35:47;11.30;99.90
72865;DHT22;61000;48.120;11.548;2023-04-24T08:38:15;11.30;99.90
72865;DHT22;61000;48.120;11.548;2023-04-24T08:40:42;11.10;99.90
72865;DHT22;61000;48.120;11.548;2023-04-24T08:43:12;10.90;99.90
72865;DHT22;61000;48.120;11.548;2023-04-24T08:45:42;10.70;99.90
72865;DHT22;61000;48.120;11.548;2023-04-24T08:48:09;10.40;99.90
72865;DHT22;61000;48.120;11.548;2023-04-24T08:50:37;10.40;99.90
72865;DHT22;61000;48.120;11.548;2023-04-24T08:53:07;10.40;99.90
72865;DHT22;61000;48.120;11.548;2023-04-24T08:55:37;10.50;99.90
72865;DHT22;61000;48.120;11.548;2023-04-24T08:58:04;10.50;99.90
72865;DHT22;61000;48.120;11.548;2023-04-24T09:00:31;10.30;99.90
72865;DHT22;61000;48.120;11.548;2023-04-24T09:03:00;10.30;99.90
72865;DHT22;61000;48.120;11.548;2023-04-24T09:05:28;10.30;99.90
72865;DHT22;61000;48.120;11.548;2023-04-24T09:07:56;10.20;99.90
72865;DHT22;61000;48.120;11.548;2023-04-24T09:10:24;10.20;99.90
72865;DHT22;61000;48.120;11.548;2023-04-24T09:12:54;10.30;99.90
72865;DHT22;61000;48.120;11.548;2023-04-24T09:15:22;10.20;99.90
72865;DHT22;61000;48.120;11.548;2023-04-24T09:17:49;10.30;99.90
72865;DHT22;61000;48.120;11.548;2023-04-24T09:20:17;10.30;99.90
72865;DHT22;61000;48.120;11.548;2023-04-24T09:22:45;10.40;99.90
72865;DHT22;61000;48.120;11.548;2023-04-24T09:25:12;10.50;99.90
72865;DHT22;61000;48.120;11.548;2023-04-24T09:27:42;10.60;99.90
72865;DHT22;61000;48.120;11.548;2023-04-24T09:30:12;10.90;99.90
72865;DHT22;61000;48.120;11.548;2023-04-24T09:32:39;10.90;99.90
72865;DHT22;61000;48.120;11.548;2023-04-24T09:35:12;10.90;99.90
72865;DHT22;61000;48.120;11.548;2023-04-24T09:37:40;11.00;99.90
72865;DHT22;61000;48.120;11.548;2023-04-24T09:40:12;11.30;99.90
72865;DHT22;61000;48.120;11.548;2023-04-24T09:42:39;11.30;99.90
72865;DHT22;61000;48.120;11.548;2023-04-24T09:45:10;11.30;99.90
72865;DHT22;61000;48.120;11.548;2023-04-24T09:47:38;11.30;99.90
72865;DHT22;61000;48.120;11.548;2023-04-24T09:50:15;11.40;99.90
72865;DHT22;61000;48.120;11.548;2023-04-24T09:52:44;11.50;99.90
72865;DHT22;61000;48.120;11.548;2023-04-24T09:55:18;11.70;99.90
72865;DHT22;61000;48.120;11.548;2023-04-24T09:57:56;11.70;99.90
72865;DHT22;61000;48.120;11.548;2023-04-24T10:00:26;11.70;99.90
72865;DHT22;61000;48.120;11.548;2023-04-24T10:02:57;12.00;99.90
72865;DHT22;61000;48.120;11.548;2023-04-24T10:05:26;12.00;99.90
72865;DHT22;61000;48.120;11.548;2023-04-24T10:07:56;12.30;99.90
72865;DHT22;61000;48.120;11.548;2023-04-24T10:10:24;12.40;99.90
72865;DHT22;61000;48.120;11.548;2023-04-24T10:12:51;12.60;99.90
72865;DHT22;61000;48.120;11.548;2023-04-24T10:15:18;12.60;99.10
72865;DHT22;61000;48.120;11.548;2023-04-24T10:17:48;12.90;98.70
72865;DHT22;61000;48.120;11.548;2023-04-24T10:20:19;13.00;98.20
72865;DHT22;61000;48.120;11.548;2023-04-24T10:22:48;13.00;98.10
72865;DHT22;61000;48.120;11.548;2023-04-24T10:25:18;12.90;97.80
72865;DHT22;61000;48.120;11.548;2023-04-24T10:27:51;12.90;97.60
72865;DHT22;61000;48.120;11.548;2023-04-24T10:30:19;12.90;97.60
72865;DHT22;61000;48.120;11.548;2023-04-24T10:32:48;12.80;97.50
72865;DHT22;61000;48.120;11.548;2023-04-24T10:35:15;12.90;97.30
72865;DHT22;61000;48.120;11.548;2023-04-24T10:37:48;12.80;97.30
72865;DHT22;61000;48.120;11.548;2023-04-24T10:40:17;12.80;97.60
72865;DHT22;61000;48.120;11.548;2023-04-24T10:42:47;12.70;97.70
72865;DHT22;61000;48.120;11.548;2023-04-24T10:45:17;12.50;98.00
72865;DHT22;61000;48.120;11.548;2023-04-24T10:47:57;12.40;98.00
72865;DHT22;61000;48.120;11.548;2023-04-24T10:50:26;12.30;98.70
72865;DHT22;61000;48.120;11.548;2023-04-24T10:52:55;12.20;98.80
72865;DHT22;61000;48.120;11.548;2023-04-24T10:55:42;11.80;99.90
72865;DHT22;61000;48.120;11.548;2023-04-24T10:58:10;10.90;99.90
72865;DHT22;61000;48.120;11.548;2023-04-24T11:00:38;10.20;99.90
72865;DHT22;61000;48.120;11.548;2023-04-24T11:03:09;9.80;99.90
72865;DHT22;61000;48.120;11.548;2023-04-24T11:05:55;9.80;99.90
72865;DHT22;61000;48.120;11.548;2023-04-24T11:08:25;9.80;99.90
72865;DHT22;61000;48.120;11.548;2023-04-24T11:10:58;9.90;99.90
72865;DHT22;61000;48.120;11.548;2023-04-24T11:14:01;10.10;99.90
72865;DHT22;61000;48.120;11.548;2023-04-24T11:16:31;10.40;99.90
72865;DHT22;61000;48.120;11.548;2023-04-24T11:19:05;10.80;99.90
72865;DHT22;61000;48.120;11.548;2023-04-24T11:21:39;11.00;99.90
72865;DHT22;61000;48.120;11.548;2023-04-24T11:24:25;11.20;99.90
72865;DHT22;61000;48.120;11.548;2023-04-24T11:26:53;11.60;99.90
72865;DHT22;61000;48.120;11.548;2023-04-24T11:29:21;11.60;99.90
72865;DHT22;61000;48.120;11.548;2023-04-24T11:31:49;11.90;99.90
72865;DHT22;61000;48.120;11.548;2023-04-24T11:34:17;12.10;99.90
72865;DHT22;61000;48.120;11.548;2023-04-24T11:36:45;12.20;99.90
72865;DHT22;61000;48.120;11.548;2023-04-24T11:39:12;12.20;99.90
72865;DHT22;61000;48.120;11.548;2023-04-24T11:41:39;12.50;99.90
72865;DHT22;61000;48.120;11.548;2023-04-24T11:44:09;12.70;99.90
72865;DHT22;61000;48.120;11.548;2023-04-24T11:46:36;12.70;99.90
72865;DHT22;61000;48.120;11.548;2023-04-24T11:49:06;12.80;99.90
72865;DHT22;61000;48.120;11.548;2023-04-24T11:51:34;12.80;99.90
72865;DHT22;61000;48.120;11.548;2023-04-24T11:54:01;12.50;99.90
72865;DHT22;61000;48.120;11.548;2023-04-24T11:56:28;12.60;99.90
72865;DHT22;61000;48.120;11.548;2023-04-24T11:58:55;12.50;99.90
72865;DHT22;61000;48.120;11.548;2023-04-24T12:01:22;12.30;99.90
72865;DHT22;61000;48.120;11.548;2023-04-24T12:03:49;12.40;99.90
72865;DHT22;61000;48.120;11.548;2023-04-24T12:06:18;12.30;99.90
72865;DHT22;61000;48.120;11.548;2023-04-24T12:08:46;12.40;99.90
72865;DHT22;61000;48.120;11.548;2023-04-24T12:11:16;12.60;99.90
72865;DHT22;61000;48.120;11.548;2023-04-24T12:13:44;12.80;99.90
72865;DHT22;61000;48.120;11.548;2023-04-24T12:16:11;12.80;99.90
72865;DHT22;61000;48.120;11.548;2023-04-24T12:18:42;12.90;99.90
72865;DHT22;61000;48.120;11.548;2023-04-24T12:21:24;12.90;99.90
72865;DHT22;61000;48.120;11.548;2023-04-24T12:23:54;12.80;99.90
72865;DHT22;61000;48.120;11.548;2023-04-24T12:26:21;12.70;99.90
72865;DHT22;61000;48.120;11.548;2023-04-24T12:28:49;12.60;99.90
72865;DHT22;61000;48.120;11.548;2023-04-24T12:31:20;12.40;99.90
72865;DHT22;61000;48.120;11.548;2023-04-24T12:33:47;12.80;99.90
72865;DHT22;61000;48.120;11.548;2023-04-24T12:36:14;13.10;99.70
72865;DHT22;61000;48.120;11.548;2023-04-24T12:38:44;13.30;98.40
72865;DHT22;61000;48.120;11.548;2023-04-24T12:41:13;13.40;98.60
72865;DHT22;61000;48.120;11.548;2023-04-24T12:43:51;13.60;98.10
72865;DHT22;61000;48.120;11.548;2023-04-24T12:46:18;13.70;97.30
72865;DHT22;61000;48.120;11.548;2023-04-24T12:48:45;13.60;96.30
72865;DHT22;61000;48.120;11.548;2023-04-24T12:51:12;13.50;95.10
72865;DHT22;61000;48.120;11.548;2023-04-24T12:53:39;13.60;95.00
72865;DHT22;61000;48.120;11.548;2023-04-24T12:56:07;13.70;94.50
72865;DHT22;61000;48.120;11.548;2023-04-24T12:58:34;13.80;93.20
72865;DHT22;61000;48.120;11.548;2023-04-24T13:01:01;14.00;94.20
72865;DHT22;61000;48.120;11.548;2023-04-24T13:03:28;14.00;97.80
72865;DHT22;61000;48.120;11.548;2023-04-24T13:05:55;13.90;95.80
72865;DHT22;61000;48.120;11.548;2023-04-24T13:08:22;13.90;94.60
72865;DHT22;61000;48.120;11.548;2023-04-24T13:10:49;14.00;94.90
72865;DHT22;61000;48.120;11.548;2023-04-24T13:13:18;13.90;94.60
72865;DHT22;61000;48.120;11.548;2023-04-24T13:15:44;13.90;95.10
72865;DHT22;61000;48.120;11.548;2023-04-24T13:18:11;13.90;95.50
72865;DHT22;61000;48.120;11.548;2023-04-24T13:20:38;13.80;94.80
72865;DHT22;61000;48.120;11.548;2023-04-24T13:23:06;13.50;94.20
72865;DHT22;61000;48.120;11.548;2023-04-24T13:25:36;13.40;95.10
72865;DHT22;61000;48.120;11.548;2023-04-24T13:28:04;13.20;94.50
72865;DHT22;61000;48.120;11.548;2023-04-24T13:30:49;13.30;94.30
72865;DHT22;61000;48.120;11.548;2023-04-24T13:33:16;13.20;93.90
72865;DHT22;61000;48.120;11.548;2023-04-24T13:35:43;13.40;92.70
72865;DHT22;61000;48.120;11.548;2023-04-24T13:38:10;13.60;92.50
72865;DHT22;61000;48.120;11.548;2023-04-24T13:40:37;13.60;92.10
72865;DHT22;61000;48.120;11.548;2023-04-24T13:43:04;13.70;92.40
72865;DHT22;61000;48.120;11.548;2023-04-24T13:45:31;13.60;91.90
72865;DHT22;61000;48.120;11.548;2023-04-24T13:48:00;13.60;92.00
72865;DHT22;61000;48.120;11.548;2023-04-24T13:50:28;13.60;91.80
72865;DHT22;61000;48.120;11.548;2023-04-24T13:52:55;13.60;91.70
72865;DHT22;61000;48.120;11.548;2023-04-24T13:55:22;13.90;91.60
72865;DHT22;61000;48.120;11.548;2023-04-24T13:57:53;13.80;91.70
72865;DHT22;61000;48.120;11.548;2023-04-24T14:00:23;13.80;92.40
72865;DHT22;61000;48.120;11.548;2023-04-24T14:02:50;13.80;92.40
72865;DHT22;61000;48.120;11.548;2023-04-24T14:05:20;13.80;92.70
72865;DHT22;61000;48.120;11.548;2023-04-24T14:07:47;13.70;93.10
72865;DHT22;61000;48.120;11.548;2023-04-24T14:10:14;13.70;93.40
72865;DHT22;61000;48.120;11.548;2023-04-24T14:12:44;13.90;93.20
72865;DHT22;61000;48.120;11.548;2023-04-24T14:15:11;13.80;92.40
72865;DHT22;61000;48.120;11.548;2023-04-24T14:17:38;13.70;92.20
72865;DHT22;61000;48.120;11.548;2023-04-24T14:20:07;13.70;91.80
72865;DHT22;61000;48.120;11.548;2023-04-24T14:22:35;13.70;91.60
72865;DHT22;61000;48.120;11.548;2023-04-24T14:25:04;13.70;89.90
72865;DHT22;61000;48.120;11.548;2023-04-24T14:27:32;13.70;89.60
72865;DHT22;61000;48.120;11.548;2023-04-24T14:30:00;13.90;89.60
72865;DHT22;61000;48.120;11.548;2023-04-24T14:32:28;14.10;89.40
72865;DHT22;61000;48.120;11.548;2023-04-24T14:34:55;14.10;88.50
72865;DHT22;61000;48.120;11.548;2023-04-24T14:37:22;14.00;88.00
72865;DHT22;61000;48.120;11.548;2023-04-24T14:39:50;13.50;88.90
72865;DHT22;61000;48.120;11.548;2023-04-24T14:42:17;13.50;90.10
72865;DHT22;61000;48.120;11.548;2023-04-24T14:44:44;13.70;89.50
72865;DHT22;61000;48.120;11.548;2023-04-24T14:47:11;13.70;88.90
72865;DHT22;61000;48.120;11.548;2023-04-24T14:49:38;13.70;89.10
72865;DHT22;61000;48.120;11.548;2023-04-24T14:52:05;13.40;88.10
72865;DHT22;61000;48.120;11.548;2023-04-24T14:54:32;13.30;89.50
72865;DHT22;61000;48.120;11.548;2023-04-24T14:57:02;13.20;88.50
72865;DHT22;61000;48.120;11.548;2023-04-24T14:59:29;13.10;90.50
72865;DHT22;61000;48.120;11.548;2023-04-24T15:01:57;13.10;88.20
72865;DHT22;61000;48.120;11.548;2023-04-24T15:04:23;13.20;86.80
72865;DHT22;61000;48.120;11.548;2023-04-24T15:06:51;13.20;85.70
72865;DHT22;61000;48.120;11.548;2023-04-24T15:09:19;13.30;85.90
72865;DHT22;61000;48.120;11.548;2023-04-24T15:11:46;13.20;86.60
72865;DHT22;61000;48.120;11.548;2023-04-24T15:14:14;13.10;85.30
72865;DHT22;61000;48.120;11.548;2023-04-24T15:16:41;13.00;87.10
72865;DHT22;61000;48.120;11.548;2023-04-24T15:19:08;12.90;87.20
72865;DHT22;61000;48.120;11.548;2023-04-24T15:21:35;13.00;86.90
72865;DHT22;61000;48.120;11.548;2023-04-24T15:24:03;13.20;86.50
72865;DHT22;61000;48.120;11.548;2023-04-24T15:26:30;13.30;85.90
72865;DHT22;61000;48.120;11.548;2023-04-24T15:28:57;13.30;83.90